Time;durP1;ratioP1;P1;durP2;ratioP2;P2;SDS_P1;SDS_P2;PMS_P1;PMS_P2;Temp;Humidity;BMP_temperature;BMP_pressure;BME280_temperature;BME280_humidity;BME280_pressure;Samples;Min_cycle;Max_cycle;Signal;HPM_P1;HPM_P2
2023/06/28 00:01:00;;;;;;;5.47;4.68;;;;;;;27.87;44.25;96181.78;5038445;28;20018;-31
2023/06/28 00:03:26;;;;;;;5.65;3.85;;;;;;;27.69;44.57;96182.78;5034884;28;20080;-30
2023/06/28 00:05:51;;;;;;;8.32;4.95;;;;;;;27.81;44.02;96179.16;5042223;28;20068;-30
2023/06/28 00:08:17;;;;;;;8.15;4.68;;;;;;;27.82;43.37;96175.06;5035482;28;20025;-30
2023/06/28 00:10:42;;;;;;;7.03;4.32;;;;;;;27.77;43.30;96167.63;5035326;28;20459;-29
2023/06/28 00:13:07;;;;;;;7.13;4.38;;;;;;;27.60;43.40;96169.34;5035210;28;20402;-30
2023/06/28 00:15:33;;;;;;;7.95;4.32;;;;;;;27.48;44.15;96164.03;5034917;28;20021;-30
2023/06/28 00:18:02;;;;;;;8.70;4.03;;;;;;;27.86;43.26;96160.78;5035331;28;20032;-30
2023/06/28 00:20:28;;;;;;;5.78;4.25;;;;;;;27.84;42.59;96160.56;5034806;28;20379;-30
2023/06/28 00:22:54;;;;;;;5.63;4.18;;;;;;;27.71;42.43;96149.53;5034930;28;20041;-31
2023/06/28 00:25:20;;;;;;;7.10;3.90;;;;;;;27.71;42.66;96152.31;5034828;28;20431;-30
2023/06/28 00:27:46;;;;;;;6.05;3.80;;;;;;;27.75;42.43;96158.31;5034830;28;20052;-30
2023/06/28 00:30:12;;;;;;;8.20;4.70;;;;;;;27.67;42.44;96157.53;5035004;28;20055;-30
2023/06/28 00:32:37;;;;;;;5.60;3.47;;;;;;;27.74;42.35;96148.44;5034861;28;20025;-31
2023/06/28 00:35:04;;;;;;;6.05;4.15;;;;;;;27.71;42.02;96146.75;5035282;28;20022;-30
2023/06/28 00:37:30;;;;;;;8.60;4.25;;;;;;;27.65;42.37;96154.53;5035132;28;20068;-30
2023/06/28 00:39:55;;;;;;;6.97;4.45;;;;;;;27.81;42.28;96153.34;5034421;28;20057;-30
2023/06/28 00:42:21;;;;;;;6.68;4.05;;;;;;;27.66;42.84;96150.44;5033808;28;20063;-30
2023/06/28 00:44:46;;;;;;;5.45;4.18;;;;;;;27.91;42.00;96151.53;5034693;28;20448;-30
2023/06/28 00:47:13;;;;;;;6.97;4.68;;;;;;;27.68;42.32;96145.84;5034401;28;20023;-30
2023/06/28 00:49:39;;;;;;;3.97;3.42;;;;;;;27.61;42.50;96152.09;5041881;28;20108;-30
2023/06/28 00:52:10;;;;;;;6.50;4.43;;;;;;;27.75;42.50;96147.16;5034324;28;20017;-30
2023/06/28 00:54:36;;;;;;;6.65;4.18;;;;;;;27.70;42.41;96150.81;5035082;28;20044;-30
2023/06/28 00:57:03;;;;;;;6.88;4.38;;;;;;;27.54;42.49;96159.09;5034366;28;20032;-30
2023/06/28 00:59:29;;;;;;;6.75;3.97;;;;;;;27.70;42.68;96159.94;5034409;28;20021;-30
2023/06/28 01:01:55;;;;;;;5.15;3.72;;;;;;;27.66;42.87;96161.59;5033939;28;20458;-30
2023/06/28 01:04:20;;;;;;;6.70;4.13;;;;;;;27.82;42.35;96161.13;5034610;28;20033;-30
2023/06/28 01:06:53;;;;;;;7.88;4.05;;;;;;;27.80;42.14;96160.19;5041374;28;20029;-30
2023/06/28 01:09:23;;;;;;;;;;;;;;;27.52;42.82;96158.88;5041632;28;20096;-30
2023/06/28 01:11:52;;;;;;;5.03;3.95;;;;;;;27.46;42.47;96158.25;5035319;28;19909;-30
2023/06/28 01:14:19;;;;;;;4.57;3.88;;;;;;;27.69;41.67;96157.72;5034097;28;20111;-30
2023/06/28 01:16:49;;;;;;;8.77;4.30;;;;;;;27.80;41.06;96155.38;5034305;28;20029;-30
2023/06/28 01:19:16;;;;;;;6.05;3.75;;;;;;;27.54;42.04;96153.50;5037504;28;20060;-30
2023/06/28 01:21:45;;;;;;;5.03;3.88;;;;;;;27.54;42.03;96161.88;5036884;28;20036;-30
2023/06/28 01:24:11;;;;;;;7.63;4.40;;;;;;;27.54;41.98;96150.72;5034293;28;20036;-30
2023/06/28 01:26:38;;;;;;;7.20;4.50;;;;;;;27.53;42.13;96154.81;5033905;28;20036;-30
2023/06/28 01:29:04;;;;;;;6.07;4.20;;;;;;;27.50;41.79;96155.13;5034112;28;20032;-30
2023/06/28 01:31:30;;;;;;;4.95;3.78;;;;;;;27.73;41.25;96155.31;5040351;28;20116;-30
2023/06/28 01:33:56;;;;;;;5.85;3.90;;;;;;;27.71;41.19;96153.06;5039798;28;20152;-30
2023/06/28 01:36:21;;;;;;;4.38;3.55;;;;;;;27.51;41.46;96151.81;5034366;28;20030;-29
2023/06/28 01:38:47;;;;;;;6.75;4.20;;;;;;;27.61;41.02;96154.88;5033577;28;20025;-30
2023/06/28 01:41:14;;;;;;;5.20;3.80;;;;;;;27.58;41.01;96150.38;5033460;28;20072;-30
2023/06/28 01:43:41;;;;;;;5.97;3.55;;;;;;;27.57;40.76;96150.97;5033875;28;20071;-30
2023/06/28 01:46:07;;;;;;;6.28;3.83;;;;;;;27.43;41.21;96153.06;5040685;28;20044;-31
2023/06/28 01:48:32;;;;;;;8.82;4.57;;;;;;;27.31;41.63;96149.81;5033487;28;20466;-30
2023/06/28 01:50:59;;;;;;;6.43;3.97;;;;;;;27.28;41.78;96145.31;5033273;28;20021;-30
2023/06/28 01:53:24;;;;;;;5.47;4.28;;;;;;;27.29;42.41;96137.72;5032748;28;20021;-30
2023/06/28 01:55:50;;;;;;;6.15;3.97;;;;;;;27.48;42.37;96141.75;5033576;28;20022;-29
2023/06/28 01:58:15;;;;;;;5.22;4.20;;;;;;;27.61;42.10;96142.97;5033044;28;20017;-30
2023/06/28 02:00:40;;;;;;;5.68;4.40;;;;;;;27.59;42.02;96151.13;5040479;28;20026;-30
2023/06/28 02:03:06;;;;;;;6.50;4.53;;;;;;;27.48;42.39;96147.31;5033331;28;20021;-30
2023/06/28 02:05:31;;;;;;;6.78;4.38;;;;;;;27.63;42.12;96146.72;5033268;28;20037;-30
2023/06/28 02:07:57;;;;;;;5.32;4.38;;;;;;;27.56;42.21;96149.47;5040409;28;20025;-30
2023/06/28 02:10:23;;;;;;;8.73;4.95;;;;;;;27.49;42.69;96145.28;5040438;28;20017;-29
2023/06/28 02:12:49;;;;;;;7.20;3.92;;;;;;;27.50;42.80;96144.00;5040991;28;20052;-30
2023/06/28 02:15:15;;;;;;;5.68;4.32;;;;;;;27.60;42.25;96149.84;5033308;28;20049;-30
2023/06/28 02:17:40;;;;;;;8.48;4.25;;;;;;;27.48;42.47;96144.53;5032900;28;20437;-30
2023/06/28 02:20:09;;;;;;;6.60;4.10;;;;;;;27.45;42.48;96142.09;5033088;28;20025;-30
2023/06/28 02:22:34;;;;;;;5.07;4.20;;;;;;;27.46;42.42;96143.59;5033116;28;20021;-30
2023/06/28 02:25:00;;;;;;;5.85;4.10;;;;;;;27.40;43.00;96145.78;5033352;28;20028;-30
2023/06/28 02:27:25;;;;;;;5.53;4.75;;;;;;;27.48;42.76;96138.22;5033405;28;20022;-30
2023/06/28 02:29:51;;;;;;;6.45;4.63;;;;;;;27.54;42.65;96134.00;5033273;28;20029;-30
2023/06/28 02:32:16;;;;;;;8.25;4.25;;;;;;;27.35;43.06;96133.50;5032701;28;20009;-30
2023/06/28 02:34:42;;;;;;;5.40;3.85;;;;;;;27.44;42.91;96130.22;5033354;28;20022;-30
2023/06/28 02:37:08;;;;;;;6.78;4.57;;;;;;;27.38;42.63;96132.41;5031823;28;20029;-30
2023/06/28 02:39:33;;;;;;;6.93;4.20;;;;;;;27.19;43.28;96129.13;5033580;28;20026;-30
2023/06/28 02:41:59;;;;;;;7.50;4.75;;;;;;;27.00;43.25;96131.34;5032732;28;20560;-30
2023/06/28 02:44:24;;;;;;;7.28;4.53;;;;;;;27.18;42.95;96127.63;5032828;28;20038;-30
2023/06/28 02:46:49;;;;;;;4.63;4.07;;;;;;;27.26;42.92;96125.63;5033211;28;20021;-30
2023/06/28 02:49:15;;;;;;;7.38;4.22;;;;;;;27.17;43.15;96120.56;5033038;28;20024;-30
2023/06/28 02:51:40;;;;;;;8.45;5.05;;;;;;;27.07;43.68;96125.88;5033231;28;20113;-30
2023/06/28 02:54:06;;;;;;;7.90;5.10;;;;;;;27.08;43.38;96121.78;5032909;28;20014;-30
2023/06/28 02:56:33;;;;;;;6.75;4.53;;;;;;;26.99;43.91;96121.50;5032828;28;20052;-30
2023/06/28 02:58:58;;;;;;;9.43;4.50;;;;;;;27.34;43.44;96131.25;5032636;28;20021;-30
2023/06/28 03:01:25;;;;;;;8.50;5.07;;;;;;;27.26;43.26;96120.06;5032595;28;20029;-29
2023/06/28 03:03:52;;;;;;;6.38;4.70;;;;;;;27.27;43.34;96129.16;5032682;28;20010;-30
2023/06/28 03:06:18;;;;;;;8.27;4.47;;;;;;;27.18;43.58;96124.84;5038691;28;20025;-30
2023/06/28 03:08:43;;;;;;;6.03;4.80;;;;;;;27.24;43.73;96128.22;5037969;28;20030;-30
2023/06/28 03:11:09;;;;;;;8.20;4.38;;;;;;;27.28;43.31;96125.84;5036256;28;20063;-30
2023/06/28 03:13:34;;;;;;;5.35;4.05;;;;;;;27.23;44.05;96128.75;5036083;28;20033;-30
2023/06/28 03:16:00;;;;;;;8.02;4.32;;;;;;;27.23;43.41;96129.50;5036346;28;20025;-30
2023/06/28 03:18:26;;;;;;;6.45;5.00;;;;;;;27.13;43.47;96128.50;5036382;28;20029;-30
2023/06/28 03:20:52;;;;;;;6.20;4.50;;;;;;;27.27;43.04;96127.13;5036514;28;20096;-30
2023/06/28 03:23:18;;;;;;;7.97;4.85;;;;;;;27.15;43.91;96137.06;5036107;28;20554;-30
2023/06/28 03:25:44;;;;;;;7.07;4.80;;;;;;;27.18;43.58;96133.19;5036070;28;20033;-30
2023/06/28 03:28:10;;;;;;;6.65;4.38;;;;;;;27.35;43.18;96139.06;5036237;28;20025;-30
2023/06/28 03:30:35;;;;;;;8.43;4.57;;;;;;;27.24;43.35;96128.22;5036068;28;20410;-30
2023/06/28 03:33:01;;;;;;;5.65;4.20;;;;;;;27.27;43.55;96132.69;5036152;28;20021;-30
2023/06/28 03:35:26;;;;;;;6.07;4.57;;;;;;;27.09;43.59;96123.25;5036708;28;20021;-30
2023/06/28 03:37:53;;;;;;;7.13;4.10;;;;;;;27.20;43.36;96127.09;5035211;28;20372;-30
2023/06/28 03:40:18;;;;;;;7.20;4.57;;;;;;;27.45;42.85;96115.00;5035753;28;20013;-31
2023/06/28 03:42:44;;;;;;;6.53;4.70;;;;;;;27.29;43.26;96112.66;5040071;28;20500;-30
2023/06/28 03:45:10;;;;;;;5.70;4.20;;;;;;;27.20;43.01;96111.09;5049501;28;20037;-30
2023/06/28 03:47:35;;;;;;;8.00;4.78;;;;;;;27.24;43.14;96116.31;5043228;28;20534;-30
2023/06/28 03:50:01;;;;;;;9.32;4.57;;;;;;;27.28;42.86;96116.75;5035406;28;20018;-30
2023/06/28 03:52:26;;;;;;;6.93;4.15;;;;;;;27.21;42.96;96118.16;5035724;28;20527;-30
2023/06/28 03:54:52;;;;;;;10.07;4.53;;;;;;;27.28;42.86;96117.47;5035456;28;20062;-30
2023/06/28 03:57:20;;;;;;;4.65;3.83;;;;;;;27.28;42.68;96111.16;5035396;28;20387;-29
2023/06/28 03:59:46;;;;;;;8.00;4.60;;;;;;;27.30;42.51;96123.25;5035397;28;20024;-32
2023/06/28 04:02:11;;;;;;;4.75;3.83;;;;;;;27.25;42.71;96123.38;5042234;28;20029;-30
2023/06/28 04:04:37;;;;;;;4.10;3.70;;;;;;;27.27;42.25;96124.34;5035349;28;20025;-30
2023/06/28 04:07:02;;;;;;;9.10;5.00;;;;;;;27.36;42.18;96123.84;5037675;28;20017;-30
2023/06/28 04:09:28;;;;;;;5.45;3.95;;;;;;;27.34;42.41;96123.63;5039041;28;20032;-29
2023/06/28 04:11:53;;;;;;;7.53;4.80;;;;;;;27.38;41.91;96123.31;5035071;28;20029;-30
2023/06/28 04:14:19;;;;;;;6.55;4.40;;;;;;;27.45;41.68;96115.00;5035106;28;20010;-30
2023/06/28 04:16:44;;;;;;;8.63;5.03;;;;;;;27.25;42.22;96124.13;5034634;28;20030;-30
2023/06/28 04:19:09;;;;;;;8.23;4.15;;;;;;;27.38;42.35;96117.72;5035262;28;20010;-30
2023/06/28 04:21:35;;;;;;;9.65;4.15;;;;;;;27.44;42.11;96113.53;5035245;28;20025;-30
2023/06/28 04:24:01;;;;;;;9.98;4.63;;;;;;;27.42;42.04;96110.53;5034967;28;20425;-30
2023/06/28 04:26:26;;;;;;;6.50;4.40;;;;;;;27.45;41.94;96117.78;5034991;28;20053;-30
2023/06/28 04:28:52;;;;;;;5.38;4.20;;;;;;;27.39;42.29;96111.63;5042270;28;20493;-31
2023/06/28 04:31:17;;;;;;;5.78;4.50;;;;;;;27.35;42.63;96116.03;5035009;28;20013;-29
2023/06/28 04:33:43;;;;;;;6.50;4.35;;;;;;;27.24;42.96;96111.50;5034635;28;20028;-30
2023/06/28 04:36:09;;;;;;;6.97;4.30;;;;;;;27.32;42.37;96117.16;5034601;28;20021;-30
2023/06/28 04:38:35;;;;;;;8.18;4.47;;;;;;;27.25;42.59;96112.25;5034847;28;20545;-30
2023/06/28 04:41:00;;;;;;;8.90;4.40;;;;;;;27.43;42.50;96120.38;5041211;28;20124;-30
2023/06/28 04:43:26;;;;;;;9.32;4.80;;;;;;;27.18;42.83;96119.28;5034923;28;20025;-30
2023/06/28 04:45:51;;;;;;;6.60;3.97;;;;;;;27.16;43.37;96116.28;5034368;28;20021;-30
2023/06/28 04:48:17;;;;;;;7.28;4.65;;;;;;;27.32;42.34;96120.69;5034423;28;20013;-30
2023/06/28 04:50:46;;;;;;;7.85;4.63;;;;;;;27.39;42.96;96119.97;5034148;28;20032;-30
2023/06/28 04:53:12;;;;;;;7.40;4.40;;;;;;;27.29;43.03;96127.34;5034166;28;20024;-30
2023/06/28 04:55:37;;;;;;;10.00;4.40;;;;;;;27.43;43.19;96128.00;5034615;28;20025;-30
2023/06/28 04:58:04;;;;;;;6.25;4.35;;;;;;;27.18;43.53;96130.41;5034476;28;20377;-30
2023/06/28 05:00:30;;;;;;;6.05;4.60;;;;;;;27.52;43.36;96133.81;5034321;28;20025;-30
2023/06/28 05:02:57;;;;;;;8.23;4.82;;;;;;;27.45;43.36;96137.28;5034262;28;20486;-30
2023/06/28 05:05:26;;;;;;;7.30;4.38;;;;;;;27.53;43.23;96129.72;5034149;28;20100;-30
2023/06/28 05:07:53;;;;;;;8.63;4.63;;;;;;;27.21;44.38;96134.88;5034567;28;20031;-30
2023/06/28 05:10:19;;;;;;;8.88;4.78;;;;;;;27.36;43.87;96134.97;5033987;28;20066;-30
2023/06/28 05:12:45;;;;;;;10.15;4.78;;;;;;;27.31;44.27;96138.69;5033765;28;20017;-30
2023/06/28 05:15:10;;;;;;;7.60;5.00;;;;;;;27.37;44.40;96138.53;5034012;28;20014;-30
2023/06/28 05:17:36;;;;;;;7.18;4.97;;;;;;;27.21;45.00;96140.44;5043511;28;20067;-31
2023/06/28 05:20:02;;;;;;;7.03;4.55;;;;;;;27.26;44.95;96150.69;5033989;28;20033;-30
2023/06/28 05:22:28;;;;;;;10.38;5.20;;;;;;;27.38;44.38;96149.13;5033947;28;20525;-31
2023/06/28 05:24:53;;;;;;;8.88;4.72;;;;;;;27.58;44.55;96158.00;5034810;28;20064;-30
2023/06/28 05:27:20;;;;;;;6.00;4.68;;;;;;;27.45;44.66;96153.97;5033458;28;20022;-30
2023/06/28 05:29:45;;;;;;;7.75;4.60;;;;;;;27.49;44.81;96168.31;5032697;28;20463;-30
2023/06/28 05:32:13;;;;;;;7.20;4.90;;;;;;;27.21;45.90;96154.34;5033916;28;20029;-30
2023/06/28 05:34:39;;;;;;;5.30;4.60;;;;;;;27.28;45.45;96161.28;5033868;28;20029;-30
2023/06/28 05:37:05;;;;;;;12.75;4.93;;;;;;;27.41;45.43;96167.53;5041378;28;20024;-30
2023/06/28 05:39:30;;;;;;;6.43;4.38;;;;;;;27.32;45.73;96164.47;5033839;28;20387;-30
2023/06/28 05:41:56;;;;;;;8.30;4.70;;;;;;;27.44;45.68;96165.69;5033225;28;20041;-29
2023/06/28 05:44:21;;;;;;;9.90;4.60;;;;;;;27.28;45.77;96162.03;5033521;28;20029;-30
2023/06/28 05:46:47;;;;;;;8.63;5.28;;;;;;;27.16;46.20;96160.81;5033359;28;20021;-30
2023/06/28 05:49:12;;;;;;;7.35;4.68;;;;;;;27.31;46.34;96160.94;5033014;28;20093;-30
2023/06/28 05:51:38;;;;;;;7.82;4.88;;;;;;;27.25;45.91;96154.75;5034009;28;20022;-30
2023/06/28 05:54:04;;;;;;;8.20;4.90;;;;;;;27.27;45.95;96162.56;5033620;28;20508;-30
2023/06/28 05:56:29;;;;;;;7.65;4.85;;;;;;;27.38;46.07;96162.28;5033693;28;20032;-29
2023/06/28 05:58:56;;;;;;;9.05;5.30;;;;;;;27.48;45.16;96158.47;5038559;28;20024;-30
2023/06/28 06:01:23;;;;;;;8.45;4.72;;;;;;;27.08;46.36;96155.16;5036845;28;20025;-31
2023/06/28 06:03:49;;;;;;;8.45;4.88;;;;;;;27.16;45.64;96160.81;5033494;28;20017;-30
2023/06/28 06:06:15;;;;;;;6.18;4.40;;;;;;;27.44;44.88;96158.09;5033292;28;20044;-30
2023/06/28 06:08:40;;;;;;;5.72;4.20;;;;;;;27.36;45.00;96162.81;5033564;28;20053;-30
2023/06/28 06:11:06;;;;;;;6.72;4.25;;;;;;;27.31;46.17;96155.38;5033282;28;20032;-30
2023/06/28 06:13:31;;;;;;;7.45;4.00;;;;;;;27.24;46.80;96160.88;5033248;28;20099;-30
2023/06/28 06:15:57;;;;;;;9.95;4.72;;;;;;;27.06;48.44;96155.00;5033199;28;20133;-30
2023/06/28 06:18:22;;;;;;;10.65;5.00;;;;;;;26.95;48.44;96152.47;5033827;28;20053;-30
2023/06/28 06:20:48;;;;;;;8.20;4.70;;;;;;;27.27;48.48;96151.44;5040504;28;20030;-30
2023/06/28 06:23:14;;;;;;;10.75;5.20;;;;;;;27.46;47.36;96158.25;5039921;28;20013;-30
2023/06/28 06:25:39;;;;;;;7.45;5.30;;;;;;;27.44;47.38;96169.22;5033179;28;20044;-29
2023/06/28 06:28:05;;;;;;;7.47;4.90;;;;;;;27.61;47.25;96166.00;5033001;28;20378;-30
2023/06/28 06:30:30;;;;;;;11.07;4.85;;;;;;;27.37;48.01;96169.91;5033395;28;20117;-29
2023/06/28 06:32:56;;;;;;;9.30;4.82;;;;;;;27.58;47.68;96167.09;5040148;28;20043;-30
2023/06/28 06:35:21;;;;;;;8.27;4.40;;;;;;;27.45;47.73;96169.94;5036234;28;20363;-29
2023/06/28 06:37:47;;;;;;;8.65;5.22;;;;;;;27.35;47.77;96177.28;5038050;28;20029;-29
2023/06/28 06:40:12;;;;;;;9.07;4.72;;;;;;;27.35;48.13;96183.63;5034869;28;20390;-29
2023/06/28 06:42:39;;;;;;;7.53;4.63;;;;;;;27.62;46.88;96183.47;5036676;28;20438;-30
2023/06/28 06:45:05;;;;;;;5.72;4.78;;;;;;;27.58;47.58;96172.66;5036744;28;20474;-29
2023/06/28 06:47:31;;;;;;;6.70;5.38;;;;;;;27.44;47.53;96179.63;5043996;28;20875;-29
2023/06/28 06:49:56;;;;;;;8.73;5.15;;;;;;;27.49;48.10;96187.81;5037074;28;20100;-30
2023/06/28 06:52:22;;;;;;;7.32;5.30;;;;;;;27.49;48.36;96182.25;5036425;28;20032;-31
2023/06/28 06:54:47;;;;;;;8.18;5.22;;;;;;;27.64;47.79;96181.63;5036978;28;20458;-30
2023/06/28 06:57:15;;;;;;;8.35;5.10;;;;;;;27.60;48.63;96177.69;5036521;28;20466;-30
2023/06/28 06:59:40;;;;;;;8.75;5.10;;;;;;;27.71;47.76;96169.03;5036273;28;20451;-29
2023/06/28 07:02:06;;;;;;;6.78;5.18;;;;;;;27.69;47.73;96172.41;5036991;28;20155;-29
2023/06/28 07:04:32;;;;;;;9.05;5.22;;;;;;;27.53;48.46;96171.50;5036375;28;20033;-29
2023/06/28 07:06:57;;;;;;;7.90;4.97;;;;;;;27.61;48.63;96170.84;5036402;28;20374;-30
2023/06/28 07:09:24;;;;;;;8.63;4.93;;;;;;;27.72;48.37;96170.53;5036458;28;20028;-30
2023/06/28 07:11:49;;;;;;;8.13;5.68;;;;;;;27.64;48.27;96172.53;5042786;28;20020;-30
2023/06/28 07:14:15;;;;;;;9.73;5.35;;;;;;;27.72;47.98;96170.53;5036442;28;20020;-29
2023/06/28 07:16:44;;;;;;;7.18;4.97;;;;;;;27.83;47.46;96170.22;5036668;28;20463;-29
2023/06/28 07:19:10;;;;;;;9.57;5.55;;;;;;;27.81;47.30;96172.84;5036536;28;20021;-30
2023/06/28 07:21:35;;;;;;;9.25;5.05;;;;;;;27.75;47.81;96172.22;5035856;28;20025;-30
2023/06/28 07:24:01;;;;;;;9.68;5.50;;;;;;;27.79;47.57;96161.50;5036271;28;20029;-29
2023/06/28 07:26:27;;;;;;;8.60;4.97;;;;;;;27.62;47.75;96161.19;5036241;28;20434;-30
2023/06/28 07:28:52;;;;;;;5.93;4.28;;;;;;;27.77;47.52;96173.19;5036245;28;20049;-30
2023/06/28 07:31:18;;;;;;;6.20;4.68;;;;;;;27.75;46.99;96169.44;5036610;28;20056;-30
2023/06/28 07:33:43;;;;;;;8.27;4.93;;;;;;;27.78;45.96;96160.00;5035919;28;20023;-30
2023/06/28 07:36:09;;;;;;;8.18;5.13;;;;;;;27.98;44.87;96164.00;5035874;28;20025;-29
2023/06/28 07:38:35;;;;;;;4.78;4.28;;;;;;;27.64;43.08;96166.97;5035167;28;20026;-29
2023/06/28 07:41:00;;;;;;;4.97;4.25;;;;;;;27.82;42.99;96168.75;5042408;28;20116;-29
2023/06/28 07:43:26;;;;;;;5.18;3.88;;;;;;;27.91;43.28;96167.50;5035974;28;20382;-30
2023/06/28 07:45:52;;;;;;;8.07;4.47;;;;;;;27.75;42.90;96163.88;5042021;28;20021;-29
2023/06/28 07:48:18;;;;;;;5.78;4.25;;;;;;;27.68;43.17;96161.78;5036084;28;20039;-30
2023/06/28 07:50:45;;;;;;;4.35;3.83;;;;;;;27.97;43.20;96165.28;5034921;28;20530;-29
2023/06/28 07:53:10;;;;;;;5.75;4.13;;;;;;;27.90;43.40;96169.53;5035101;28;20013;-29
2023/06/28 07:55:36;;;;;;;5.72;3.72;;;;;;;27.93;43.06;96162.88;5035464;28;20543;-29
2023/06/28 07:58:01;;;;;;;4.30;3.70;;;;;;;27.97;42.70;96160.47;5039032;28;20420;-30
2023/06/28 08:00:28;;;;;;;7.80;4.50;;;;;;;28.11;41.93;96161.84;5036146;28;20029;-29
2023/06/28 08:02:54;;;;;;;5.43;3.67;;;;;;;28.14;42.58;96157.97;5035403;28;20382;-29
2023/06/28 08:05:20;;;;;;;5.47;4.20;;;;;;;27.85;42.91;96165.59;5035341;28;20436;-29
2023/06/28 08:07:46;;;;;;;5.15;4.03;;;;;;;28.03;42.75;96172.22;5035345;28;20025;-29
2023/06/28 08:10:12;;;;;;;5.80;3.95;;;;;;;27.95;42.78;96174.19;5035092;28;20033;-29
2023/06/28 08:12:38;;;;;;;7.32;4.10;;;;;;;27.95;42.85;96174.19;5042513;28;20009;-29
2023/06/28 08:15:05;;;;;;;8.75;4.45;;;;;;;28.14;42.62;96166.31;5035303;28;20467;-30
2023/06/28 08:17:30;;;;;;;5.60;4.10;;;;;;;28.17;42.97;96170.81;5034974;28;20026;-29
2023/06/28 08:19:55;;;;;;;5.90;4.30;;;;;;;28.39;42.38;96174.25;5035161;28;20104;-30
2023/06/28 08:22:21;;;;;;;6.70;3.88;;;;;;;28.34;42.62;96164.75;5034839;28;20103;-30
2023/06/28 08:24:48;;;;;;;5.07;4.50;;;;;;;28.20;42.64;96168.97;5041986;28;20051;-30
2023/06/28 08:27:13;;;;;;;6.32;4.20;;;;;;;28.28;42.47;96169.75;5037771;28;20021;-30
2023/06/28 08:29:39;;;;;;;5.93;4.28;;;;;;;28.16;42.46;96169.31;5039795;28;20056;-30
2023/06/28 08:32:05;;;;;;;5.65;4.00;;;;;;;28.11;41.62;96167.41;5034680;28;20032;-30
2023/06/28 08:34:30;;;;;;;6.90;3.90;;;;;;;28.24;40.67;96170.13;5034359;28;20025;-30
2023/06/28 08:36:55;;;;;;;5.00;3.90;;;;;;;28.29;41.42;96164.94;5034597;28;20071;-30
2023/06/28 08:39:21;;;;;;;5.78;3.92;;;;;;;28.14;41.92;96169.13;5035189;28;20024;-30
2023/06/28 08:41:48;;;;;;;6.57;3.90;;;;;;;28.33;41.47;96159.72;5041731;28;20053;-30
2023/06/28 08:44:18;;;;;;;5.15;3.90;;;;;;;28.29;41.38;96165.69;5034353;28;20492;-29
2023/06/28 08:46:44;;;;;;;6.25;4.10;;;;;;;28.18;42.35;96163.97;5034524;28;20109;-30
2023/06/28 08:49:12;;;;;;;6.10;4.43;;;;;;;28.09;42.04;96158.84;5034317;28;20031;-29
2023/06/28 08:51:38;;;;;;;6.00;4.30;;;;;;;28.16;41.90;96155.38;5041566;28;20463;-29
2023/06/28 08:54:04;;;;;;;7.95;4.22;;;;;;;28.18;41.98;96158.38;5034724;28;20021;-30
2023/06/28 08:56:31;;;;;;;5.40;4.10;;;;;;;28.10;42.29;96165.19;5034292;28;20108;-30
2023/06/28 08:58:57;;;;;;;7.40;3.92;;;;;;;28.27;42.03;96178.69;5035082;28;20022;-31
2023/06/28 09:01:23;;;;;;;8.60;4.32;;;;;;;28.27;41.98;96173.09;5034160;28;20022;-30
2023/06/28 09:03:49;;;;;;;8.40;4.75;;;;;;;28.26;41.94;96163.25;5035930;28;20036;-31
2023/06/28 09:06:15;;;;;;;7.85;4.00;;;;;;;28.26;41.96;96166.78;5039175;28;20403;-30
2023/06/28 09:08:42;;;;;;;5.47;4.20;;;;;;;28.29;41.84;96170.50;5034627;28;20021;-30
2023/06/28 09:11:08;;;;;;;6.88;4.00;;;;;;;28.33;41.67;96165.31;5039950;28;20489;-31
2023/06/28 09:13:34;;;;;;;6.82;3.90;;;;;;;28.23;42.29;96168.63;5038912;28;20030;-29
2023/06/28 09:16:00;;;;;;;6.93;4.32;;;;;;;28.38;42.01;96167.19;5033903;28;20464;-30
2023/06/28 09:18:25;;;;;;;5.15;4.22;;;;;;;28.28;42.71;96166.22;5041604;28;20120;-30
2023/06/28 09:20:53;;;;;;;9.27;4.03;;;;;;;28.35;41.97;96165.50;5048920;28;20032;-30
2023/06/28 09:23:28;;;;;;;5.93;3.65;;;;;;;28.29;42.27;96178.88;5033969;28;20045;-31
2023/06/28 09:25:55;;;;;;;5.57;4.00;;;;;;;28.43;41.52;96166.28;5033996;28;20462;-30
2023/06/28 09:28:30;;;;;;;5.50;3.80;;;;;;;28.30;41.73;96172.75;5034063;28;20044;-30
2023/06/28 09:30:56;;;;;;;6.05;3.75;;;;;;;28.14;41.96;96176.72;5046958;28;20391;-30
2023/06/28 09:33:26;;;;;;;8.95;4.45;;;;;;;28.47;41.70;96167.41;5033990;28;20471;-30
2023/06/28 09:35:56;;;;;;;5.70;3.72;;;;;;;28.45;41.74;96158.84;5033664;28;20048;-30
2023/06/28 09:38:22;;;;;;;5.53;3.63;;;;;;;28.43;41.73;96166.28;5033930;28;20135;-32
2023/06/28 09:41:01;;;;;;;7.90;4.10;;;;;;;28.42;42.00;96170.38;5033895;28;20132;-29
2023/06/28 09:43:34;;;;;;;6.65;3.95;;;;;;;28.54;42.41;96163.91;5032298;28;20021;-29
2023/06/28 09:46:17;;;;;;;4.85;4.00;;;;;;;28.45;42.91;96169.25;5039876;28;20025;-30
2023/06/28 09:48:44;;;;;;;9.00;4.00;;;;;;;28.48;42.98;96159.78;5033304;28;20033;-30
2023/06/28 09:51:11;;;;;;;5.50;3.70;;;;;;;28.45;43.17;96158.84;5042693;28;20021;-30
2023/06/28 09:53:52;;;;;;;6.43;4.13;;;;;;;28.33;43.64;96168.09;5033765;28;20086;-30
2023/06/28 09:56:18;;;;;;;6.80;3.83;;;;;;;28.37;43.53;96171.28;5033597;28;20025;-31
2023/06/28 09:58:47;;;;;;;7.35;4.18;;;;;;;28.48;43.81;96159.78;5034342;28;20020;-29
2023/06/28 10:01:15;;;;;;;4.88;4.10;;;;;;;28.42;44.17;96164.81;5033630;28;20026;-30
2023/06/28 10:03:45;;;;;;;7.05;4.50;;;;;;;28.56;44.21;96160.56;5033586;28;20022;-30
2023/06/28 10:06:11;;;;;;;5.53;4.13;;;;;;;28.56;44.56;96166.16;5033055;28;20026;-30
2023/06/28 10:08:40;;;;;;;6.93;4.15;;;;;;;28.55;44.75;96167.44;5046465;28;20030;-30
2023/06/28 10:11:13;;;;;;;9.05;5.05;;;;;;;28.57;44.73;96168.38;5033493;28;20029;-30
2023/06/28 10:13:41;;;;;;;6.05;4.72;;;;;;;28.61;44.72;96179.16;5033407;28;20065;-30
2023/06/28 10:16:13;;;;;;;7.25;4.55;;;;;;;28.60;44.72;96177.69;5037319;28;20088;-30
2023/06/28 10:18:39;;;;;;;7.90;4.70;;;;;;;28.65;44.12;96184.41;5037329;28;20371;-30
2023/06/28 10:21:07;;;;;;;9.30;4.72;;;;;;;28.55;44.64;96181.41;5037621;28;20079;-30
2023/06/28 10:23:37;;;;;;;7.00;4.40;;;;;;;28.59;44.43;96188.09;5035926;28;20402;-30
2023/06/28 10:26:03;;;;;;;6.97;4.40;;;;;;;28.67;44.63;96188.13;5036929;28;20459;-32
2023/06/28 10:28:34;;;;;;;7.32;4.30;;;;;;;28.60;44.92;96192.38;5037294;28;20032;-30
2023/06/28 10:31:01;;;;;;;6.07;4.68;;;;;;;28.58;45.13;96197.00;5044206;28;20498;-30
2023/06/28 10:33:31;;;;;;;6.18;4.38;;;;;;;28.58;45.00;96197.00;5044293;28;20028;-31
2023/06/28 10:36:00;;;;;;;7.47;5.00;;;;;;;28.70;44.66;96191.84;5037143;28;20021;-30
2023/06/28 10:38:31;;;;;;;6.88;4.57;;;;;;;28.71;44.88;96194.06;5037399;28;20034;-30
2023/06/28 10:40:56;;;;;;;7.35;4.57;;;;;;;28.76;44.78;96198.00;5036931;28;20076;-30
2023/06/28 10:43:25;;;;;;;7.38;4.95;;;;;;;28.70;44.74;96200.22;5036820;28;20061;-30
2023/06/28 10:45:54;;;;;;;9.45;4.60;;;;;;;28.75;44.69;96199.31;5037448;28;20079;-30
2023/06/28 10:48:21;;;;;;;6.28;4.80;;;;;;;28.71;45.16;96205.25;5036638;28;20097;-29
2023/06/28 10:50:49;;;;;;;7.47;5.20;;;;;;;28.78;44.96;96204.56;5036830;28;20028;-30
2023/06/28 10:53:26;;;;;;;6.18;4.82;;;;;;;28.64;45.36;96205.97;5036933;28;20020;-29
2023/06/28 10:56:13;;;;;;;7.90;4.70;;;;;;;28.76;45.03;96195.22;5036994;28;20025;-29
2023/06/28 10:58:47;;;;;;;6.90;4.85;;;;;;;28.69;45.52;96201.50;5037983;28;20463;-30
2023/06/28 11:01:38;;;;;;;6.68;4.47;;;;;;;28.75;45.90;96202.84;5041078;28;20021;-30
2023/06/28 11:04:17;;;;;;;11.15;5.47;;;;;;;28.76;46.06;96198.75;5036432;28;20025;-30
2023/06/28 11:06:44;;;;;;;5.55;4.47;;;;;;;28.71;46.22;96208.03;5036311;28;20053;-30
2023/06/28 11:09:13;;;;;;;8.18;5.22;;;;;;;28.73;45.99;96205.44;5036154;28;20031;-29
2023/06/28 11:11:41;;;;;;;5.03;4.55;;;;;;;28.83;45.70;96205.66;5036633;28;20068;-31
2023/06/28 11:14:22;;;;;;;7.30;5.35;;;;;;;28.73;46.31;96208.22;5036462;28;20108;-30
2023/06/28 11:16:48;;;;;;;8.90;5.13;;;;;;;28.79;46.34;96206.06;5039721;28;20075;-31
2023/06/28 11:19:15;;;;;;;5.15;4.40;;;;;;;28.82;45.84;96199.34;5043093;28;20383;-29
2023/06/28 11:21:41;;;;;;;5.63;5.03;;;;;;;28.83;45.79;96195.25;5036155;28;20025;-30
2023/06/28 11:24:07;;;;;;;6.18;4.60;;;;;;;28.76;46.40;96193.16;5036405;28;20053;-30
2023/06/28 11:26:37;;;;;;;9.38;5.28;;;;;;;28.77;46.36;96191.88;5036469;28;20040;-30
2023/06/28 11:29:23;;;;;;;8.90;4.80;;;;;;;28.76;46.66;96190.38;5036544;28;20021;-30
2023/06/28 11:31:53;;;;;;;9.70;4.93;;;;;;;28.72;46.71;96187.19;5035691;28;20120;-30